sensor_id;sensor_type;location;lat;lon;timestamp;P1;durP1;ratioP1;P2;durP2;ratioP2
4305;SDS011;2166;49.926;8.608;2023-05-31T00:00:14;8.25;;;3.25;;
4305;SDS011;2166;49.926;8.608;2023-05-31T00:02:43;8.40;;;2.72;;
4305;SDS011;2166;49.926;8.608;2023-05-31T00:05:14;8.25;;;2.58;;
4305;SDS011;2166;49.926;8.608;2023-05-31T00:07:43;7.80;;;2.42;;
4305;SDS011;2166;49.926;8.608;2023-05-31T00:10:12;9.90;;;3.13;;
4305;SDS011;2166;49.926;8.608;2023-05-31T00:12:44;12.32;;;2.92;;
4305;SDS011;2166;49.926;8.608;2023-05-31T00:15:13;7.50;;;2.67;;
4305;SDS011;2166;49.926;8.608;2023-05-31T00:17:42;9.20;;;2.55;;
4305;SDS011;2166;49.926;8.608;2023-05-31T00:20:17;9.65;;;3.00;;
4305;SDS011;2166;49.926;8.608;2023-05-31T00:22:49;9.85;;;2.55;;
4305;SDS011;2166;49.926;8.608;2023-05-31T00:25:17;12.45;;;3.05;;
4305;SDS011;2166;49.926;8.608;2023-05-31T00:27:47;10.45;;;2.75;;
4305;SDS011;2166;49.926;8.608;2023-05-31T00:30:18;16.08;;;2.95;;
4305;SDS011;2166;49.926;8.608;2023-05-31T00:32:46;9.80;;;3.10;;
4305;SDS011;2166;49.926;8.608;2023-05-31T00:35:16;12.40;;;3.40;;
4305;SDS011;2166;49.926;8.608;2023-05-31T00:37:46;7.10;;;2.47;;
4305;SDS011;2166;49.926;8.608;2023-05-31T00:40:15;9.35;;;2.85;;
4305;SDS011;2166;49.926;8.608;2023-05-31T00:42:44;10.93;;;3.17;;
4305;SDS011;2166;49.926;8.608;2023-05-31T00:45:13;7.68;;;2.72;;
4305;SDS011;2166;49.926;8.608;2023-05-31T00:47:42;10.75;;;3.25;;
4305;SDS011;2166;49.926;8.608;2023-05-31T00:50:12;10.32;;;2.85;;
4305;SDS011;2166;49.926;8.608;2023-05-31T00:52:42;14.48;;;3.15;;
4305;SDS011;2166;49.926;8.608;2023-05-31T00:55:13;7.22;;;2.90;;
4305;SDS011;2166;49.926;8.608;2023-05-31T00:57:43;10.85;;;3.38;;
4305;SDS011;2166;49.926;8.608;2023-05-31T01:00:14;10.27;;;3.67;;
4305;SDS011;2166;49.926;8.608;2023-05-31T01:02:45;10.07;;;2.90;;
4305;SDS011;2166;49.926;8.608;2023-05-31T01:05:17;9.70;;;2.70;;
4305;SDS011;2166;49.926;8.608;2023-05-31T01:07:48;14.45;;;4.13;;
4305;SDS011;2166;49.926;8.608;2023-05-31T01:10:19;10.13;;;3.45;;
4305;SDS011;2166;49.926;8.608;2023-05-31T01:12:51;8.43;;;3.42;;
4305;SDS011;2166;49.926;8.608;2023-05-31T01:15:32;9.85;;;2.95;;
4305;SDS011;2166;49.926;8.608;2023-05-31T01:18:10;8.02;;;2.92;;
4305;SDS011;2166;49.926;8.608;2023-05-31T01:20:46;10.32;;;3.10;;
4305;SDS011;2166;49.926;8.608;2023-05-31T01:23:26;8.82;;;3.05;;
4305;SDS011;2166;49.926;8.608;2023-05-31T01:29:11;12.80;;;3.40;;
4305;SDS011;2166;49.926;8.608;2023-05-31T01:31:42;8.55;;;3.17;;
4305;SDS011;2166;49.926;8.608;2023-05-31T01:34:13;8.40;;;3.58;;
4305;SDS011;2166;49.926;8.608;2023-05-31T01:36:43;10.57;;;3.08;;
4305;SDS011;2166;49.926;8.608;2023-05-31T01:39:12;12.18;;;3.80;;
4305;SDS011;2166;49.926;8.608;2023-05-31T01:41:44;11.57;;;3.45;;
4305;SDS011;2166;49.926;8.608;2023-05-31T01:44:15;15.75;;;4.22;;
4305;SDS011;2166;49.926;8.608;2023-05-31T01:46:46;10.00;;;3.55;;
4305;SDS011;2166;49.926;8.608;2023-05-31T01:49:17;13.65;;;3.72;;
4305;SDS011;2166;49.926;8.608;2023-05-31T01:51:48;11.98;;;3.97;;
4305;SDS011;2166;49.926;8.608;2023-05-31T01:54:18;9.68;;;3.05;;
4305;SDS011;2166;49.926;8.608;2023-05-31T01:56:49;9.75;;;3.50;;
4305;SDS011;2166;49.926;8.608;2023-05-31T01:59:20;10.93;;;3.38;;
4305;SDS011;2166;49.926;8.608;2023-05-31T02:01:49;12.20;;;3.63;;
4305;SDS011;2166;49.926;8.608;2023-05-31T02:04:18;7.65;;;3.53;;
4305;SDS011;2166;49.926;8.608;2023-05-31T02:06:47;11.63;;;3.80;;
4305;SDS011;2166;49.926;8.608;2023-05-31T02:09:17;10.85;;;3.92;;
4305;SDS011;2166;49.926;8.608;2023-05-31T02:11:48;11.32;;;4.07;;
4305;SDS011;2166;49.926;8.608;2023-05-31T02:14:17;11.25;;;4.03;;
4305;SDS011;2166;49.926;8.608;2023-05-31T02:16:45;14.00;;;4.28;;
4305;SDS011;2166;49.926;8.608;2023-05-31T02:19:14;13.25;;;4.40;;
4305;SDS011;2166;49.926;8.608;2023-05-31T02:21:43;12.23;;;4.32;;
4305;SDS011;2166;49.926;8.608;2023-05-31T02:24:12;8.88;;;3.63;;
4305;SDS011;2166;49.926;8.608;2023-05-31T02:26:40;14.98;;;4.43;;
4305;SDS011;2166;49.926;8.608;2023-05-31T02:29:11;12.15;;;4.20;;
4305;SDS011;2166;49.926;8.608;2023-05-31T02:31:41;7.85;;;3.97;;
4305;SDS011;2166;49.926;8.608;2023-05-31T02:34:12;10.65;;;4.28;;
4305;SDS011;2166;49.926;8.608;2023-05-31T02:36:42;8.05;;;3.50;;
4305;SDS011;2166;49.926;8.608;2023-05-31T02:39:11;9.85;;;3.70;;
4305;SDS011;2166;49.926;8.608;2023-05-31T02:41:41;10.13;;;4.28;;
4305;SDS011;2166;49.926;8.608;2023-05-31T02:44:11;12.63;;;4.75;;
4305;SDS011;2166;49.926;8.608;2023-05-31T02:46:41;8.25;;;4.45;;
4305;SDS011;2166;49.926;8.608;2023-05-31T02:49:11;9.93;;;4.20;;
4305;SDS011;2166;49.926;8.608;2023-05-31T02:51:40;10.20;;;4.57;;
4305;SDS011;2166;49.926;8.608;2023-05-31T02:54:29;10.65;;;4.32;;
4305;SDS011;2166;49.926;8.608;2023-05-31T02:57:00;11.77;;;4.30;;
4305;SDS011;2166;49.926;8.608;2023-05-31T02:59:36;14.38;;;5.30;;
4305;SDS011;2166;49.926;8.608;2023-05-31T03:02:09;12.05;;;4.07;;
4305;SDS011;2166;49.926;8.608;2023-05-31T03:04:44;12.57;;;3.97;;
4305;SDS011;2166;49.926;8.608;2023-05-31T03:07:14;16.75;;;4.60;;
4305;SDS011;2166;49.926;8.608;2023-05-31T03:09:45;13.55;;;4.63;;
4305;SDS011;2166;49.926;8.608;2023-05-31T03:12:15;11.93;;;4.57;;
4305;SDS011;2166;49.926;8.608;2023-05-31T03:14:47;13.73;;;4.65;;
4305;SDS011;2166;49.926;8.608;2023-05-31T03:17:17;11.98;;;4.53;;
4305;SDS011;2166;49.926;8.608;2023-05-31T03:19:47;10.88;;;5.13;;
4305;SDS011;2166;49.926;8.608;2023-05-31T03:22:18;13.35;;;4.65;;
4305;SDS011;2166;49.926;8.608;2023-05-31T03:24:47;7.78;;;3.95;;
4305;SDS011;2166;49.926;8.608;2023-05-31T03:27:16;12.32;;;4.80;;
4305;SDS011;2166;49.926;8.608;2023-05-31T03:29:45;11.85;;;5.03;;
4305;SDS011;2166;49.926;8.608;2023-05-31T03:32:16;15.68;;;5.45;;
4305;SDS011;2166;49.926;8.608;2023-05-31T03:34:45;15.32;;;5.03;;
4305;SDS011;2166;49.926;8.608;2023-05-31T03:37:14;10.60;;;4.90;;
4305;SDS011;2166;49.926;8.608;2023-05-31T03:39:48;11.70;;;4.70;;
4305;SDS011;2166;49.926;8.608;2023-05-31T03:42:23;8.35;;;4.63;;
4305;SDS011;2166;49.926;8.608;2023-05-31T03:44:53;10.23;;;4.72;;
4305;SDS011;2166;49.926;8.608;2023-05-31T03:47:22;14.32;;;4.22;;
4305;SDS011;2166;49.926;8.608;2023-05-31T03:49:51;11.77;;;5.63;;
4305;SDS011;2166;49.926;8.608;2023-05-31T03:52:20;12.80;;;4.80;;
4305;SDS011;2166;49.926;8.608;2023-05-31T03:54:49;14.15;;;4.93;;
4305;SDS011;2166;49.926;8.608;2023-05-31T03:57:20;11.82;;;4.47;;
4305;SDS011;2166;49.926;8.608;2023-05-31T03:59:50;12.88;;;5.28;;
4305;SDS011;2166;49.926;8.608;2023-05-31T04:02:22;14.38;;;5.28;;
4305;SDS011;2166;49.926;8.608;2023-05-31T04:04:52;9.57;;;5.22;;
4305;SDS011;2166;49.926;8.608;2023-05-31T04:07:20;11.95;;;5.53;;
4305;SDS011;2166;49.926;8.608;2023-05-31T04:09:49;10.27;;;4.47;;
4305;SDS011;2166;49.926;8.608;2023-05-31T04:12:20;10.95;;;4.65;;
4305;SDS011;2166;49.926;8.608;2023-05-31T04:14:49;11.63;;;5.97;;
4305;SDS011;2166;49.926;8.608;2023-05-31T04:17:19;14.45;;;4.78;;
4305;SDS011;2166;49.926;8.608;2023-05-31T04:19:50;14.40;;;4.85;;
4305;SDS011;2166;49.926;8.608;2023-05-31T04:22:19;9.48;;;4.30;;
4305;SDS011;2166;49.926;8.608;2023-05-31T04:24:49;8.85;;;4.45;;
4305;SDS011;2166;49.926;8.608;2023-05-31T04:27:30;13.57;;;4.28;;
4305;SDS011;2166;49.926;8.608;2023-05-31T04:30:02;8.40;;;4.35;;
4305;SDS011;2166;49.926;8.608;2023-05-31T04:37:59;8.85;;;3.83;;
4305;SDS011;2166;49.926;8.608;2023-05-31T04:40:30;10.77;;;3.90;;
4305;SDS011;2166;49.926;8.608;2023-05-31T04:43:00;13.93;;;4.47;;
4305;SDS011;2166;49.926;8.608;2023-05-31T04:45:31;13.43;;;3.97;;
4305;SDS011;2166;49.926;8.608;2023-05-31T04:48:01;9.85;;;4.07;;
4305;SDS011;2166;49.926;8.608;2023-05-31T04:50:33;10.18;;;4.20;;
4305;SDS011;2166;49.926;8.608;2023-05-31T04:53:02;15.52;;;4.65;;
4305;SDS011;2166;49.926;8.608;2023-05-31T04:55:31;9.93;;;4.32;;
4305;SDS011;2166;49.926;8.608;2023-05-31T04:58:06;12.60;;;4.28;;
4305;SDS011;2166;49.926;8.608;2023-05-31T05:00:36;10.10;;;4.10;;
4305;SDS011;2166;49.926;8.608;2023-05-31T05:03:28;11.35;;;4.05;;
4305;SDS011;2166;49.926;8.608;2023-05-31T05:06:00;13.63;;;4.80;;
4305;SDS011;2166;49.926;8.608;2023-05-31T05:08:31;9.88;;;3.70;;
4305;SDS011;2166;49.926;8.608;2023-05-31T05:11:00;11.68;;;4.72;;
4305;SDS011;2166;49.926;8.608;2023-05-31T05:13:29;10.80;;;3.83;;
4305;SDS011;2166;49.926;8.608;2023-05-31T05:15:58;10.15;;;3.60;;
4305;SDS011;2166;49.926;8.608;2023-05-31T05:18:27;10.23;;;3.55;;
4305;SDS011;2166;49.926;8.608;2023-05-31T05:20:56;10.27;;;3.72;;
4305;SDS011;2166;49.926;8.608;2023-05-31T05:23:30;9.45;;;3.50;;
4305;SDS011;2166;49.926;8.608;2023-05-31T05:26:02;11.85;;;4.13;;
4305;SDS011;2166;49.926;8.608;2023-05-31T05:28:41;7.07;;;3.45;;
4305;SDS011;2166;49.926;8.608;2023-05-31T05:31:09;8.68;;;4.32;;
4305;SDS011;2166;49.926;8.608;2023-05-31T05:33:43;8.32;;;4.22;;
4305;SDS011;2166;49.926;8.608;2023-05-31T05:36:15;8.23;;;3.78;;
4305;SDS011;2166;49.926;8.608;2023-05-31T05:38:53;9.60;;;3.70;;
4305;SDS011;2166;49.926;8.608;2023-05-31T05:41:32;12.25;;;3.88;;
4305;SDS011;2166;49.926;8.608;2023-05-31T05:44:04;7.38;;;3.38;;
4305;SDS011;2166;49.926;8.608;2023-05-31T05:46:33;8.48;;;3.25;;
4305;SDS011;2166;49.926;8.608;2023-05-31T05:49:02;11.88;;;4.10;;
4305;SDS011;2166;49.926;8.608;2023-05-31T05:51:36;10.02;;;3.42;;
4305;SDS011;2166;49.926;8.608;2023-05-31T05:54:09;9.80;;;3.15;;
4305;SDS011;2166;49.926;8.608;2023-05-31T05:56:39;9.30;;;3.38;;
4305;SDS011;2166;49.926;8.608;2023-05-31T05:59:09;8.38;;;3.17;;
4305;SDS011;2166;49.926;8.608;2023-05-31T06:01:56;7.35;;;2.90;;
4305;SDS011;2166;49.926;8.608;2023-05-31T06:04:25;8.38;;;3.10;;
4305;SDS011;2166;49.926;8.608;2023-05-31T06:06:54;5.70;;;3.15;;
4305;SDS011;2166;49.926;8.608;2023-05-31T06:09:24;7.93;;;2.95;;
4305;SDS011;2166;49.926;8.608;2023-05-31T06:11:54;6.28;;;3.00;;
4305;SDS011;2166;49.926;8.608;2023-05-31T06:14:32;7.67;;;2.90;;
4305;SDS011;2166;49.926;8.608;2023-05-31T06:17:01;8.25;;;3.60;;
4305;SDS011;2166;49.926;8.608;2023-05-31T06:19:30;7.15;;;2.78;;
4305;SDS011;2166;49.926;8.608;2023-05-31T06:22:00;11.50;;;2.97;;
4305;SDS011;2166;49.926;8.608;2023-05-31T06:24:31;5.28;;;2.47;;
4305;SDS011;2166;49.926;8.608;2023-05-31T06:27:07;9.18;;;3.50;;
4305;SDS011;2166;49.926;8.608;2023-05-31T06:29:39;6.13;;;2.33;;
4305;SDS011;2166;49.926;8.608;2023-05-31T06:32:25;8.45;;;3.00;;
4305;SDS011;2166;49.926;8.608;2023-05-31T06:34:56;7.80;;;3.10;;
4305;SDS011;2166;49.926;8.608;2023-05-31T06:37:25;4.93;;;2.60;;
4305;SDS011;2166;49.926;8.608;2023-05-31T06:39:58;11.77;;;2.67;;
4305;SDS011;2166;49.926;8.608;2023-05-31T06:42:27;6.68;;;2.03;;
4305;SDS011;2166;49.926;8.608;2023-05-31T06:45:14;6.50;;;2.20;;
4305;SDS011;2166;49.926;8.608;2023-05-31T06:48:05;4.82;;;2.42;;
4305;SDS011;2166;49.926;8.608;2023-05-31T06:51:10;6.50;;;2.25;;
4305;SDS011;2166;49.926;8.608;2023-05-31T06:53:59;5.07;;;2.28;;
4305;SDS011;2166;49.926;8.608;2023-05-31T06:56:29;8.45;;;2.28;;
4305;SDS011;2166;49.926;8.608;2023-05-31T06:59:00;7.97;;;2.30;;
4305;SDS011;2166;49.926;8.608;2023-05-31T07:01:30;4.68;;;2.05;;
4305;SDS011;2166;49.926;8.608;2023-05-31T07:04:00;4.55;;;2.25;;
4305;SDS011;2166;49.926;8.608;2023-05-31T07:06:32;6.13;;;2.38;;
4305;SDS011;2166;49.926;8.608;2023-05-31T07:09:03;6.97;;;2.08;;
4305;SDS011;2166;49.926;8.608;2023-05-31T07:11:54;6.97;;;2.55;;
4305;SDS011;2166;49.926;8.608;2023-05-31T07:14:28;8.35;;;2.63;;
4305;SDS011;2166;49.926;8.608;2023-05-31T07:16:57;5.70;;;1.98;;
4305;SDS011;2166;49.926;8.608;2023-05-31T07:19:28;11.32;;;2.28;;
4305;SDS011;2166;49.926;8.608;2023-05-31T07:21:57;6.57;;;2.20;;
4305;SDS011;2166;49.926;8.608;2023-05-31T07:24:25;5.25;;;1.45;;
4305;SDS011;2166;49.926;8.608;2023-05-31T07:26:55;6.28;;;2.22;;
4305;SDS011;2166;49.926;8.608;2023-05-31T07:29:24;3.85;;;1.63;;
4305;SDS011;2166;49.926;8.608;2023-05-31T07:31:54;7.13;;;2.70;;
4305;SDS011;2166;49.926;8.608;2023-05-31T07:34:22;3.22;;;1.60;;
4305;SDS011;2166;49.926;8.608;2023-05-31T07:36:53;9.40;;;2.25;;
4305;SDS011;2166;49.926;8.608;2023-05-31T07:39:22;4.63;;;2.20;;
4305;SDS011;2166;49.926;8.608;2023-05-31T07:41:51;5.20;;;1.73;;
4305;SDS011;2166;49.926;8.608;2023-05-31T07:44:21;15.02;;;2.28;;
4305;SDS011;2166;49.926;8.608;2023-05-31T07:46:51;5.53;;;2.08;;
4305;SDS011;2166;49.926;8.608;2023-05-31T07:49:20;5.35;;;2.00;;
4305;SDS011;2166;49.926;8.608;2023-05-31T07:51:52;7.80;;;2.38;;
4305;SDS011;2166;49.926;8.608;2023-05-31T07:54:21;4.80;;;1.75;;
4305;SDS011;2166;49.926;8.608;2023-05-31T07:56:50;4.40;;;1.55;;
4305;SDS011;2166;49.926;8.608;2023-05-31T07:59:22;3.88;;;1.50;;
4305;SDS011;2166;49.926;8.608;2023-05-31T08:01:51;5.05;;;2.10;;
4305;SDS011;2166;49.926;8.608;2023-05-31T08:04:20;6.40;;;2.03;;
4305;SDS011;2166;49.926;8.608;2023-05-31T08:06:49;5.78;;;2.10;;
4305;SDS011;2166;49.926;8.608;2023-05-31T08:09:17;6.75;;;1.98;;
4305;SDS011;2166;49.926;8.608;2023-05-31T08:11:46;5.30;;;1.88;;
4305;SDS011;2166;49.926;8.608;2023-05-31T08:14:15;4.72;;;2.10;;
4305;SDS011;2166;49.926;8.608;2023-05-31T08:16:45;4.53;;;1.80;;
4305;SDS011;2166;49.926;8.608;2023-05-31T08:19:16;4.45;;;1.50;;
4305;SDS011;2166;49.926;8.608;2023-05-31T08:21:45;7.50;;;2.15;;
4305;SDS011;2166;49.926;8.608;2023-05-31T08:24:14;7.10;;;1.80;;
4305;SDS011;2166;49.926;8.608;2023-05-31T08:26:43;4.25;;;1.60;;
4305;SDS011;2166;49.926;8.608;2023-05-31T08:29:14;3.92;;;2.00;;
4305;SDS011;2166;49.926;8.608;2023-05-31T08:31:45;5.90;;;1.63;;
4305;SDS011;2166;49.926;8.608;2023-05-31T08:34:14;5.88;;;1.90;;
4305;SDS011;2166;49.926;8.608;2023-05-31T08:36:43;3.65;;;1.58;;
4305;SDS011;2166;49.926;8.608;2023-05-31T08:39:14;4.38;;;1.77;;
4305;SDS011;2166;49.926;8.608;2023-05-31T08:41:45;8.98;;;1.60;;
4305;SDS011;2166;49.926;8.608;2023-05-31T08:44:21;5.03;;;1.58;;
4305;SDS011;2166;49.926;8.608;2023-05-31T08:46:51;6.85;;;1.83;;
4305;SDS011;2166;49.926;8.608;2023-05-31T08:49:20;4.57;;;1.20;;
4305;SDS011;2166;49.926;8.608;2023-05-31T08:51:49;6.93;;;1.40;;
4305;SDS011;2166;49.926;8.608;2023-05-31T08:54:18;3.83;;;1.50;;
4305;SDS011;2166;49.926;8.608;2023-05-31T08:56:52;5.35;;;1.40;;
4305;SDS011;2166;49.926;8.608;2023-05-31T08:59:22;4.18;;;1.52;;
4305;SDS011;2166;49.926;8.608;2023-05-31T09:01:53;4.45;;;1.02;;
4305;SDS011;2166;49.926;8.608;2023-05-31T09:04:25;6.25;;;1.60;;
4305;SDS011;2166;49.926;8.608;2023-05-31T09:06:53;3.63;;;1.65;;
4305;SDS011;2166;49.926;8.608;2023-05-31T09:09:22;6.65;;;1.63;;
4305;SDS011;2166;49.926;8.608;2023-05-31T09:11:51;5.97;;;1.63;;
4305;SDS011;2166;49.926;8.608;2023-05-31T09:14:20;3.58;;;1.42;;
4305;SDS011;2166;49.926;8.608;2023-05-31T09:16:54;3.15;;;1.55;;
4305;SDS011;2166;49.926;8.608;2023-05-31T09:19:25;5.43;;;1.20;;
4305;SDS011;2166;49.926;8.608;2023-05-31T09:21:54;3.72;;;1.50;;
4305;SDS011;2166;49.926;8.608;2023-05-31T09:24:23;4.55;;;1.20;;
4305;SDS011;2166;49.926;8.608;2023-05-31T09:26:52;2.85;;;1.50;;
4305;SDS011;2166;49.926;8.608;2023-05-31T09:29:23;6.25;;;1.30;;
4305;SDS011;2166;49.926;8.608;2023-05-31T09:32:06;5.68;;;1.42;;
4305;SDS011;2166;49.926;8.608;2023-05-31T09:34:36;7.13;;;1.73;;
4305;SDS011;2166;49.926;8.608;2023-05-31T09:37:08;10.00;;;1.70;;
4305;SDS011;2166;49.926;8.608;2023-05-31T09:39:37;8.13;;;1.40;;
4305;SDS011;2166;49.926;8.608;2023-05-31T09:42:11;4.53;;;1.23;;
4305;SDS011;2166;49.926;8.608;2023-05-31T09:44:46;6.03;;;1.42;;
4305;SDS011;2166;49.926;8.608;2023-05-31T09:47:18;3.63;;;1.38;;
4305;SDS011;2166;49.926;8.608;2023-05-31T09:49:52;2.53;;;1.08;;
4305;SDS011;2166;49.926;8.608;2023-05-31T09:52:23;2.35;;;1.00;;
4305;SDS011;2166;49.926;8.608;2023-05-31T09:54:57;1.48;;;0.82;;
4305;SDS011;2166;49.926;8.608;2023-05-31T09:57:33;4.47;;;1.23;;
4305;SDS011;2166;49.926;8.608;2023-05-31T10:00:07;9.27;;;1.10;;
4305;SDS011;2166;49.926;8.608;2023-05-31T10:02:46;3.63;;;1.00;;
4305;SDS011;2166;49.926;8.608;2023-05-31T10:05:17;5.32;;;1.40;;
4305;SDS011;2166;49.926;8.608;2023-05-31T10:07:47;4.80;;;1.63;;
4305;SDS011;2166;49.926;8.608;2023-05-31T10:10:17;3.33;;;1.15;;
4305;SDS011;2166;49.926;8.608;2023-05-31T10:12:48;2.50;;;1.17;;
4305;SDS011;2166;49.926;8.608;2023-05-31T10:15:21;9.23;;;2.22;;
4305;SDS011;2166;49.926;8.608;2023-05-31T10:17:55;2.05;;;1.20;;
4305;SDS011;2166;49.926;8.608;2023-05-31T10:20:29;3.13;;;1.30;;
4305;SDS011;2166;49.926;8.608;2023-05-31T10:23:08;3.55;;;0.98;;
4305;SDS011;2166;49.926;8.608;2023-05-31T10:25:48;1.85;;;1.00;;
4305;SDS011;2166;49.926;8.608;2023-05-31T10:28:26;2.60;;;1.35;;
4305;SDS011;2166;49.926;8.608;2023-05-31T10:30:59;2.75;;;1.10;;
4305;SDS011;2166;49.926;8.608;2023-05-31T10:33:34;4.88;;;1.50;;
4305;SDS011;2166;49.926;8.608;2023-05-31T10:36:03;3.60;;;1.25;;
4305;SDS011;2166;49.926;8.608;2023-05-31T10:38:34;2.38;;;1.20;;
4305;SDS011;2166;49.926;8.608;2023-05-31T10:41:13;5.63;;;1.02;;
4305;SDS011;2166;49.926;8.608;2023-05-31T10:43:54;4.07;;;1.15;;
4305;SDS011;2166;49.926;8.608;2023-05-31T10:46:26;1.98;;;0.93;;
4305;SDS011;2166;49.926;8.608;2023-05-31T10:49:00;6.53;;;1.50;;
4305;SDS011;2166;49.926;8.608;2023-05-31T10:51:39;4.85;;;1.20;;
4305;SDS011;2166;49.926;8.608;2023-05-31T10:54:09;7.55;;;1.45;;
4305;SDS011;2166;49.926;8.608;2023-05-31T10:56:52;4.50;;;1.10;;
4305;SDS011;2166;49.926;8.608;2023-05-31T10:59:22;3.55;;;1.25;;
4305;SDS011;2166;49.926;8.608;2023-05-31T11:01:51;3.78;;;1.45;;
4305;SDS011;2166;49.926;8.608;2023-05-31T11:04:24;5.97;;;1.40;;
4305;SDS011;2166;49.926;8.608;2023-05-31T11:06:54;2.63;;;1.02;;
4305;SDS011;2166;49.926;8.608;2023-05-31T11:09:39;2.25;;;0.93;;
4305;SDS011;2166;49.926;8.608;2023-05-31T11:12:11;3.70;;;1.00;;
4305;SDS011;2166;49.926;8.608;2023-05-31T11:14:40;4.35;;;1.33;;
4305;SDS011;2166;49.926;8.608;2023-05-31T11:17:26;4.88;;;1.33;;
4305;SDS011;2166;49.926;8.608;2023-05-31T11:19:58;3.35;;;1.40;;
4305;SDS011;2166;49.926;8.608;2023-05-31T11:22:27;4.22;;;1.23;;
4305;SDS011;2166;49.926;8.608;2023-05-31T11:24:56;4.15;;;1.10;;
4305;SDS011;2166;49.926;8.608;2023-05-31T11:27:35;4.53;;;1.40;;
4305;SDS011;2166;49.926;8.608;2023-05-31T11:30:16;4.13;;;1.08;;
4305;SDS011;2166;49.926;8.608;2023-05-31T11:32:56;5.45;;;1.52;;
4305;SDS011;2166;49.926;8.608;2023-05-31T11:35:50;3.50;;;1.50;;
4305;SDS011;2166;49.926;8.608;2023-05-31T11:38:19;4.50;;;1.30;;
4305;SDS011;2166;49.926;8.608;2023-05-31T11:40:49;2.65;;;1.25;;
4305;SDS011;2166;49.926;8.608;2023-05-31T11:43:17;3.13;;;0.90;;
4305;SDS011;2166;49.926;8.608;2023-05-31T11:45:52;4.35;;;1.42;;
4305;SDS011;2166;49.926;8.608;2023-05-31T11:51:08;5.05;;;1.50;;
4305;SDS011;2166;49.926;8.608;2023-05-31T11:53:37;4.18;;;1.17;;
4305;SDS011;2166;49.926;8.608;2023-05-31T11:56:06;5.05;;;1.52;;
4305;SDS011;2166;49.926;8.608;2023-05-31T11:58:39;6.80;;;1.20;;
4305;SDS011;2166;49.926;8.608;2023-05-31T12:01:14;5.47;;;0.90;;
4305;SDS011;2166;49.926;8.608;2023-05-31T12:03:43;4.55;;;1.20;;
4305;SDS011;2166;49.926;8.608;2023-05-31T12:06:18;6.05;;;1.45;;
4305;SDS011;2166;49.926;8.608;2023-05-31T12:08:51;7.75;;;1.42;;
4305;SDS011;2166;49.926;8.608;2023-05-31T12:11:19;3.40;;;1.02;;
4305;SDS011;2166;49.926;8.608;2023-05-31T12:13:48;3.65;;;1.05;;
4305;SDS011;2166;49.926;8.608;2023-05-31T12:16:19;2.63;;;1.10;;
4305;SDS011;2166;49.926;8.608;2023-05-31T12:18:48;3.72;;;1.20;;
4305;SDS011;2166;49.926;8.608;2023-05-31T12:21:16;5.88;;;1.17;;
4305;SDS011;2166;49.926;8.608;2023-05-31T12:23:50;4.05;;;1.33;;
4305;SDS011;2166;49.926;8.608;2023-05-31T12:26:20;3.55;;;1.08;;
4305;SDS011;2166;49.926;8.608;2023-05-31T12:28:50;1.23;;;0.80;;
4305;SDS011;2166;49.926;8.608;2023-05-31T12:31:21;3.33;;;1.10;;
4305;SDS011;2166;49.926;8.608;2023-05-31T12:33:56;5.32;;;1.27;;
4305;SDS011;2166;49.926;8.608;2023-05-31T12:36:28;2.83;;;1.27;;
4305;SDS011;2166;49.926;8.608;2023-05-31T12:39:06;2.60;;;1.05;;
4305;SDS011;2166;49.926;8.608;2023-05-31T12:41:41;4.30;;;1.20;;
4305;SDS011;2166;49.926;8.608;2023-05-31T12:44:11;5.15;;;1.48;;
4305;SDS011;2166;49.926;8.608;2023-05-31T12:46:45;4.20;;;1.10;;
4305;SDS011;2166;49.926;8.608;2023-05-31T12:49:18;4.97;;;1.20;;
4305;SDS011;2166;49.926;8.608;2023-05-31T12:51:57;2.55;;;0.90;;
4305;SDS011;2166;49.926;8.608;2023-05-31T12:54:29;3.28;;;1.02;;
4305;SDS011;2166;49.926;8.608;2023-05-31T12:57:00;3.03;;;0.98;;
4305;SDS011;2166;49.926;8.608;2023-05-31T12:59:30;4.03;;;1.13;;
4305;SDS011;2166;49.926;8.608;2023-05-31T13:02:00;11.77;;;1.23;;
4305;SDS011;2166;49.926;8.608;2023-05-31T13:04:31;3.65;;;1.20;;
4305;SDS011;2166;49.926;8.608;2023-05-31T13:07:04;3.20;;;1.10;;
4305;SDS011;2166;49.926;8.608;2023-05-31T13:09:33;4.03;;;1.02;;
4305;SDS011;2166;49.926;8.608;2023-05-31T13:12:02;1.70;;;0.70;;
4305;SDS011;2166;49.926;8.608;2023-05-31T13:14:31;3.30;;;1.02;;
4305;SDS011;2166;49.926;8.608;2023-05-31T13:17:00;1.70;;;0.95;;
4305;SDS011;2166;49.926;8.608;2023-05-31T13:19:30;2.28;;;1.10;;
4305;SDS011;2166;49.926;8.608;2023-05-31T13:21:59;2.17;;;1.00;;
4305;SDS011;2166;49.926;8.608;2023-05-31T13:24:29;2.03;;;0.88;;
4305;SDS011;2166;49.926;8.608;2023-05-31T13:27:00;2.38;;;1.10;;
4305;SDS011;2166;49.926;8.608;2023-05-31T13:29:30;2.90;;;1.00;;
4305;SDS011;2166;49.926;8.608;2023-05-31T13:31:59;1.73;;;0.85;;
4305;SDS011;2166;49.926;8.608;2023-05-31T13:34:29;5.78;;;1.15;;
4305;SDS011;2166;49.926;8.608;2023-05-31T13:36:58;2.70;;;0.90;;
4305;SDS011;2166;49.926;8.608;2023-05-31T13:39:33;2.80;;;1.00;;
4305;SDS011;2166;49.926;8.608;2023-05-31T13:42:03;2.33;;;1.17;;
4305;SDS011;2166;49.926;8.608;2023-05-31T13:44:38;3.67;;;1.23;;
4305;SDS011;2166;49.926;8.608;2023-05-31T13:47:08;1.23;;;0.85;;
4305;SDS011;2166;49.926;8.608;2023-05-31T13:49:41;4.03;;;1.25;;
4305;SDS011;2166;49.926;8.608;2023-05-31T13:52:11;7.80;;;1.35;;
4305;SDS011;2166;49.926;8.608;2023-05-31T13:54:43;2.13;;;0.95;;
4305;SDS011;2166;49.926;8.608;2023-05-31T13:57:12;3.60;;;1.00;;
4305;SDS011;2166;49.926;8.608;2023-05-31T13:59:43;2.63;;;0.75;;
4305;SDS011;2166;49.926;8.608;2023-05-31T14:02:13;4.97;;;1.20;;
4305;SDS011;2166;49.926;8.608;2023-05-31T14:04:45;2.33;;;0.95;;
4305;SDS011;2166;49.926;8.608;2023-05-31T14:07:14;4.47;;;1.27;;
4305;SDS011;2166;49.926;8.608;2023-05-31T14:09:45;7.00;;;1.38;;
4305;SDS011;2166;49.926;8.608;2023-05-31T14:12:14;5.85;;;1.13;;
4305;SDS011;2166;49.926;8.608;2023-05-31T14:14:46;5.20;;;1.13;;
4305;SDS011;2166;49.926;8.608;2023-05-31T14:17:15;2.42;;;0.90;;
4305;SDS011;2166;49.926;8.608;2023-05-31T14:19:46;3.58;;;1.45;;
4305;SDS011;2166;49.926;8.608;2023-05-31T14:22:16;4.20;;;1.27;;
4305;SDS011;2166;49.926;8.608;2023-05-31T14:24:47;2.95;;;1.13;;
4305;SDS011;2166;49.926;8.608;2023-05-31T14:27:17;3.17;;;0.85;;
4305;SDS011;2166;49.926;8.608;2023-05-31T14:29:46;1.88;;;0.90;;
4305;SDS011;2166;49.926;8.608;2023-05-31T14:32:14;4.05;;;1.10;;
4305;SDS011;2166;49.926;8.608;2023-05-31T14:34:46;4.07;;;1.10;;
4305;SDS011;2166;49.926;8.608;2023-05-31T14:37:18;1.90;;;0.88;;
4305;SDS011;2166;49.926;8.608;2023-05-31T14:40:02;4.82;;;1.20;;
4305;SDS011;2166;49.926;8.608;2023-05-31T14:42:33;3.08;;;1.13;;
4305;SDS011;2166;49.926;8.608;2023-05-31T14:45:02;4.18;;;1.05;;
4305;SDS011;2166;49.926;8.608;2023-05-31T14:47:32;3.47;;;1.00;;
4305;SDS011;2166;49.926;8.608;2023-05-31T14:50:03;2.05;;;0.75;;
4305;SDS011;2166;49.926;8.608;2023-05-31T14:52:36;1.95;;;1.30;;
4305;SDS011;2166;49.926;8.608;2023-05-31T14:55:07;2.45;;;1.10;;
4305;SDS011;2166;49.926;8.608;2023-05-31T14:57:36;1.17;;;0.70;;
4305;SDS011;2166;49.926;8.608;2023-05-31T15:00:09;4.35;;;1.15;;
4305;SDS011;2166;49.926;8.608;2023-05-31T15:02:41;3.13;;;0.90;;
4305;SDS011;2166;49.926;8.608;2023-05-31T15:05:10;1.77;;;0.85;;
4305;SDS011;2166;49.926;8.608;2023-05-31T15:07:39;1.20;;;0.90;;
4305;SDS011;2166;49.926;8.608;2023-05-31T15:10:10;5.95;;;1.08;;
4305;SDS011;2166;49.926;8.608;2023-05-31T15:12:40;4.22;;;0.85;;
4305;SDS011;2166;49.926;8.608;2023-05-31T15:15:09;1.67;;;0.80;;
4305;SDS011;2166;49.926;8.608;2023-05-31T15:17:39;4.22;;;0.80;;
4305;SDS011;2166;49.926;8.608;2023-05-31T15:20:10;1.70;;;1.00;;
4305;SDS011;2166;49.926;8.608;2023-05-31T15:22:40;5.07;;;1.10;;
4305;SDS011;2166;49.926;8.608;2023-05-31T15:25:11;5.20;;;1.35;;
4305;SDS011;2166;49.926;8.608;2023-05-31T15:27:44;5.28;;;1.25;;
4305;SDS011;2166;49.926;8.608;2023-05-31T15:30:15;4.25;;;0.98;;
4305;SDS011;2166;49.926;8.608;2023-05-31T15:32:51;1.67;;;0.80;;
4305;SDS011;2166;49.926;8.608;2023-05-31T15:35:20;3.50;;;1.25;;
4305;SDS011;2166;49.926;8.608;2023-05-31T15:37:52;5.85;;;1.20;;
4305;SDS011;2166;49.926;8.608;2023-05-31T15:40:30;3.60;;;1.00;;
4305;SDS011;2166;49.926;8.608;2023-05-31T15:43:01;1.35;;;0.75;;
4305;SDS011;2166;49.926;8.608;2023-05-31T15:45:29;2.78;;;1.15;;
4305;SDS011;2166;49.926;8.608;2023-05-31T15:48:00;5.07;;;1.15;;
4305;SDS011;2166;49.926;8.608;2023-05-31T15:50:29;2.60;;;1.08;;